Ocoee 2 Observed Data For Previous 48 Hours

Note: Discharge information is a combination of river flows at the Ocoee No. 2 dam and the volume of water diverted by the Ocoee Flume, which bypasses the middle section of the river where recreational rafting is held.

Caption
Day and Hour Reservoir Elevation (behind dam)* Tailwater Elevation (below dam)* Average Hourly Discharge*
11/11/2018 2 AM EST 842.73 1,699
11/11/2018 3 AM EST 842.65 1,600
11/11/2018 4 AM EST 842.45 1,381
11/11/2018 5 AM EST 842.41 1,332
11/11/2018 6 AM EST 842.41 1,339
11/11/2018 7 AM EST 842.40 1,330
11/11/2018 8 AM EST 842.41 1,338
11/11/2018 9 AM EST 842.40 1,327
11/11/2018 10 AM EST 842.41 1,320
11/11/2018 11 AM EST 842.40 1,306
11/11/2018 12 PM EST 842.38 1,311
11/11/2018 1 PM EST 842.39 1,316
11/11/2018 2 PM EST 842.40 1,322
11/11/2018 3 PM EST 842.39 1,307
11/11/2018 4 PM EST 842.37 1,293
11/11/2018 5 PM EST 842.37 1,304
11/11/2018 6 PM EST 842.37 1,305
11/11/2018 7 PM EST 842.37 1,295
11/11/2018 8 PM EST 842.37 1,308
11/11/2018 9 PM EST 842.37 1,301
11/11/2018 10 PM EST 842.37 1,295
11/11/2018 11 PM EST 842.39 1,299
11/12/2018 12 AM EST 842.39 1,298
11/12/2018 1 AM EST 842.37 1,295
11/12/2018 2 AM EST 842.37 1,299
11/12/2018 3 AM EST 842.37 1,303
11/12/2018 4 AM EST 842.71 1,673
11/12/2018 5 AM EST 842.68 1,635
11/12/2018 6 AM EST 842.69 1,633
11/12/2018 7 AM EST 842.69 1,663
11/12/2018 8 AM EST 842.69 1,664
11/12/2018 9 AM EST 842.28 1,166
11/12/2018 10 AM EST 841.74 1,024
11/12/2018 11 AM EST 841.50 324
11/12/2018 12 PM EST 842.35 1,090
11/12/2018 1 PM EST 842.41 1,332
11/12/2018 2 PM EST 842.86 1,861
11/12/2018 3 PM EST 843.01 2,060
11/12/2018 4 PM EST 843.17 2,270
11/12/2018 5 PM EST 843.34 2,528
11/12/2018 6 PM EST 843.52 2,794
11/12/2018 7 PM EST 843.57 2,882
11/12/2018 8 PM EST 843.56 2,889
11/12/2018 9 PM EST 843.58 2,910
11/12/2018 10 PM EST 844.54 4,831
11/12/2018 11 PM EST 844.56 5,033
11/13/2018 12 AM EST 844.61 4,796
11/13/2018 1 AM EST 844.58 4,137
11/13/2018 2 AM EST 846.07 8,289
11/13/2018 3 AM EST 846.00 8,256
11/13/2018 4 AM EST 845.98 7,740
11/13/2018 5 AM EST 846.01 8,627
11/13/2018 6 AM EST 845.84 7,317
11/13/2018 7 AM EST 845.75 7,444
11/13/2018 8 AM EST 845.64 7,292
11/13/2018 9 AM EST 844.67 4,914
11/13/2018 10 AM EST 842.96 2,058

Elevations are in feet above sea level. Discharges are in cubic feet per second and are reported at the end of the hour.